createdAt,value
2023-01-13T00:01:32.231Z,4.33
2023-01-13T00:04:04.731Z,4.50
2023-01-13T00:06:34.056Z,4.20
2023-01-13T00:09:02.216Z,4.30
2023-01-13T00:11:31.180Z,4.00
2023-01-13T00:13:59.452Z,4.00
2023-01-13T00:16:27.860Z,4.38
2023-01-13T00:18:56.371Z,4.85
2023-01-13T00:21:26.142Z,4.55
2023-01-13T00:23:55.787Z,4.57
2023-01-13T00:26:27.201Z,4.43
2023-01-13T00:28:59.245Z,4.40
2023-01-13T00:31:29.314Z,4.20
2023-01-13T00:33:58.651Z,4.60
2023-01-13T00:36:27.496Z,4.40
2023-01-13T00:38:55.777Z,4.33
2023-01-13T00:41:26.752Z,4.00
2023-01-13T00:43:55.301Z,3.70
2023-01-13T00:46:23.692Z,3.58
2023-01-13T00:48:52.719Z,3.50
2023-01-13T00:51:22.850Z,3.50
2023-01-13T00:53:53.137Z,3.10
2023-01-13T00:56:39.628Z,3.05
2023-01-13T00:59:11.885Z,3.00
2023-01-13T01:01:40.673Z,2.60
2023-01-13T01:04:08.817Z,3.20
2023-01-13T01:06:37.367Z,2.90
2023-01-13T01:09:06.599Z,3.03
2023-01-13T01:11:35.328Z,2.90
2023-01-13T01:14:07.186Z,2.75
2023-01-13T01:16:35.780Z,2.50
2023-01-13T01:19:04.502Z,2.58
2023-01-13T01:21:35.936Z,2.63
2023-01-13T01:24:05.908Z,2.70
2023-01-13T01:26:34.577Z,2.35
2023-01-13T01:29:05.668Z,2.23
2023-01-13T01:31:34.394Z,2.08
2023-01-13T01:34:03.332Z,2.00
2023-01-13T01:36:31.681Z,2.13
2023-01-13T01:39:01.347Z,2.00
2023-01-13T01:41:33.035Z,1.93
2023-01-13T01:44:42.602Z,1.85
2023-01-13T01:47:15.686Z,1.83
2023-01-13T01:49:44.992Z,2.03
2023-01-13T01:52:18.375Z,1.83
2023-01-13T01:55:07.241Z,1.80
2023-01-13T01:57:42.010Z,1.90
2023-01-13T02:00:11.295Z,2.00
2023-01-13T02:02:47.992Z,1.70
2023-01-13T02:05:16.608Z,1.83
2023-01-13T02:07:48.276Z,1.80
2023-01-13T02:10:24.329Z,1.70
2023-01-13T02:12:55.425Z,1.95
2023-01-13T02:15:32.751Z,2.00
2023-01-13T02:18:07.134Z,1.70
2023-01-13T02:20:57.136Z,1.87
2023-01-13T02:24:18.843Z,1.30
2023-01-13T02:27:22.991Z,1.50
2023-01-13T02:30:36.187Z,1.80
2023-01-13T02:33:35.020Z,1.50
2023-01-13T02:36:15.410Z,1.40
2023-01-13T02:39:13.107Z,1.50
2023-01-13T02:42:16.030Z,1.55
2023-01-13T02:44:54.686Z,1.55
2023-01-13T02:47:26.939Z,1.20
2023-01-13T02:50:11.616Z,1.50
2023-01-13T02:52:49.670Z,1.27
2023-01-13T02:55:29.691Z,1.67
2023-01-13T02:58:00.729Z,1.30
2023-01-13T03:00:30.239Z,1.40
2023-01-13T03:02:58.580Z,1.40
2023-01-13T03:05:27.311Z,1.40
2023-01-13T03:08:18.864Z,1.90
2023-01-13T03:11:07.054Z,1.23
2023-01-13T03:14:02.453Z,1.83
2023-01-13T03:16:53.469Z,1.90
2023-01-13T03:20:08.077Z,1.40
2023-01-13T03:22:52.747Z,1.30
2023-01-13T03:25:29.017Z,1.30
2023-01-13T03:28:03.027Z,1.63
2023-01-13T03:30:41.509Z,1.47
2023-01-13T03:33:31.512Z,1.23
2023-01-13T03:36:06.201Z,1.20
2023-01-13T03:38:43.453Z,1.50
2023-01-13T03:41:19.267Z,1.48
2023-01-13T03:44:24.082Z,1.30
2023-01-13T03:47:04.662Z,1.40
2023-01-13T03:49:56.026Z,1.42
2023-01-13T03:52:32.222Z,1.42
2023-01-13T03:55:09.273Z,1.50
2023-01-13T03:57:46.304Z,1.20
2023-01-13T04:00:16.793Z,1.27
2023-01-13T04:03:14.956Z,1.40
2023-01-13T04:05:52.368Z,1.60
2023-01-13T04:08:27.917Z,1.58
2023-01-13T04:11:14.120Z,1.97
2023-01-13T04:13:45.826Z,1.55
2023-01-13T04:16:14.991Z,1.80
2023-01-13T04:18:43.569Z,1.80
2023-01-13T04:21:12.523Z,1.80
2023-01-13T04:23:41.176Z,1.40
2023-01-13T04:26:09.591Z,1.70
2023-01-13T04:28:38.142Z,1.83
2023-01-13T04:31:09.518Z,1.90
2023-01-13T04:33:37.983Z,1.65
2023-01-13T04:36:06.313Z,1.87
2023-01-13T04:38:34.537Z,2.53
2023-01-13T04:41:03.230Z,2.05
2023-01-13T04:43:31.515Z,1.98
2023-01-13T04:45:59.769Z,2.00
2023-01-13T04:48:27.806Z,1.40
2023-01-13T04:50:55.823Z,1.73
2023-01-13T04:53:24.355Z,2.00
2023-01-13T04:55:52.798Z,1.98
2023-01-13T04:58:21.728Z,2.83
2023-01-13T05:00:51.904Z,2.40
2023-01-13T05:03:20.322Z,2.10
2023-01-13T05:05:54.317Z,2.20
2023-01-13T05:08:22.769Z,2.00
2023-01-13T05:10:52.672Z,2.45
2023-01-13T05:13:39.989Z,2.43
2023-01-13T05:16:29.912Z,2.80
2023-01-13T05:18:58.439Z,2.58
2023-01-13T05:21:45.192Z,3.05
2023-01-13T05:24:32.102Z,2.35
2023-01-13T05:27:00.162Z,2.50
2023-01-13T05:29:28.805Z,2.40
2023-01-13T05:31:57.676Z,2.63
2023-01-13T05:34:26.029Z,2.60
2023-01-13T05:36:57.567Z,2.50
2023-01-13T05:39:26.313Z,2.37
2023-01-13T05:42:12.793Z,2.50
2023-01-13T05:44:41.023Z,2.78
2023-01-13T05:47:09.285Z,3.10
2023-01-13T05:49:37.930Z,3.30
2023-01-13T05:52:06.055Z,3.70
2023-01-13T05:54:34.530Z,3.53
2023-01-13T05:57:05.865Z,3.42
2023-01-13T05:59:34.126Z,3.58
2023-01-13T06:02:05.402Z,3.50
2023-01-13T06:04:33.793Z,3.60
2023-01-13T06:07:01.889Z,3.20
2023-01-13T06:09:30.321Z,3.63
2023-01-13T06:11:58.774Z,3.78
2023-01-13T06:14:41.402Z,3.90
2023-01-13T06:17:15.211Z,3.97
2023-01-13T06:19:44.084Z,3.70
2023-01-13T06:22:22.607Z,4.00
2023-01-13T06:24:52.049Z,4.60
2023-01-13T06:27:22.044Z,3.90
2023-01-13T06:29:50.494Z,4.00
2023-01-13T06:32:22.275Z,3.83
2023-01-13T06:34:57.009Z,3.63
2023-01-13T06:37:26.707Z,4.03
2023-01-13T06:39:59.053Z,4.60
2023-01-13T06:43:06.497Z,4.50
2023-01-13T06:45:35.901Z,3.95
2023-01-13T06:48:03.879Z,3.80
2023-01-13T06:50:32.373Z,4.40
2023-01-13T06:53:00.589Z,4.30
2023-01-13T06:55:28.817Z,4.77
2023-01-13T06:57:58.410Z,4.90
2023-01-13T07:00:27.608Z,4.20
2023-01-13T07:03:06.965Z,4.40
2023-01-13T07:05:35.559Z,4.18
2023-01-13T07:08:04.130Z,4.23
2023-01-13T07:10:32.936Z,3.72
2023-01-13T07:13:20.933Z,4.07
2023-01-13T07:16:09.123Z,4.03
2023-01-13T07:18:38.104Z,4.97
2023-01-13T07:21:08.885Z,6.40
2023-01-13T07:23:42.164Z,5.78
2023-01-13T07:26:11.222Z,7.18
2023-01-13T07:28:39.984Z,9.50
2023-01-13T07:31:19.379Z,6.13
2023-01-13T07:33:48.529Z,5.80
2023-01-13T07:36:16.815Z,6.90
2023-01-13T07:38:45.278Z,6.13
2023-01-13T07:41:34.423Z,5.75
2023-01-13T07:44:06.584Z,5.15
2023-01-13T07:46:35.221Z,5.03
2023-01-13T07:49:03.793Z,5.28
2023-01-13T07:51:32.195Z,3.55
2023-01-13T07:54:00.103Z,2.70
2023-01-13T07:56:28.131Z,2.53
2023-01-13T07:58:56.533Z,2.93
2023-01-13T08:01:24.897Z,2.70
2023-01-13T08:03:52.810Z,2.00
2023-01-13T08:06:21.389Z,2.00
2023-01-13T08:08:49.490Z,2.33
2023-01-13T08:11:18.065Z,1.90
2023-01-13T08:13:46.316Z,2.90
2023-01-13T08:16:15.742Z,2.90
2023-01-13T08:18:44.663Z,2.20
2023-01-13T08:21:16.530Z,2.15
2023-01-13T08:23:46.244Z,2.17
2023-01-13T08:26:17.582Z,2.50
2023-01-13T08:28:46.963Z,2.75
2023-01-13T08:31:17.423Z,2.20
2023-01-13T08:33:45.908Z,1.90
2023-01-13T08:36:14.505Z,1.27
2023-01-13T08:38:43.096Z,1.45
2023-01-13T08:41:37.100Z,1.75
2023-01-13T08:44:07.222Z,1.48
2023-01-13T08:46:36.077Z,2.10
2023-01-13T08:49:04.870Z,1.90
2023-01-13T08:51:33.088Z,1.70
2023-01-13T08:54:05.138Z,1.70
2023-01-13T08:56:35.447Z,1.83
2023-01-13T08:59:04.484Z,1.50
2023-01-13T09:01:33.536Z,1.50
2023-01-13T09:04:01.773Z,1.30
2023-01-13T09:06:29.913Z,1.30
2023-01-13T09:08:59.010Z,1.40
2023-01-13T09:11:50.832Z,1.60
2023-01-13T09:14:25.788Z,1.50
2023-01-13T09:16:54.216Z,1.52
2023-01-13T09:19:22.249Z,1.77
2023-01-13T09:21:50.724Z,1.70
2023-01-13T09:24:19.240Z,1.70
2023-01-13T09:26:47.691Z,1.90
2023-01-13T09:29:15.880Z,2.05
2023-01-13T09:31:44.757Z,2.47
2023-01-13T09:34:39.875Z,2.20
2023-01-13T09:37:08.928Z,3.13
2023-01-13T09:39:37.543Z,4.30
2023-01-13T09:42:36.718Z,3.95
2023-01-13T09:45:18.304Z,2.80
2023-01-13T09:48:14.127Z,2.70
2023-01-13T09:50:49.194Z,2.40
2023-01-13T09:53:39.219Z,2.10
2023-01-13T09:56:09.709Z,2.20
2023-01-13T09:58:38.095Z,2.10
2023-01-13T10:01:36.311Z,2.03
2023-01-13T10:04:16.772Z,2.00
2023-01-13T10:06:58.672Z,2.10
2023-01-13T10:09:41.412Z,2.05
2023-01-13T10:12:38.704Z,3.08
2023-01-13T10:15:14.095Z,3.78
2023-01-13T10:18:01.795Z,3.50
2023-01-13T10:21:08.625Z,4.80
2023-01-13T10:23:52.059Z,3.85
2023-01-13T10:26:45.500Z,3.92
2023-01-13T10:29:25.411Z,4.15
2023-01-13T10:31:58.330Z,3.97
2023-01-13T10:34:28.678Z,4.57
2023-01-13T10:37:10.357Z,3.92
2023-01-13T10:39:47.714Z,4.10
2023-01-13T10:42:19.802Z,4.53
2023-01-13T10:44:57.256Z,4.40
2023-01-13T10:47:28.273Z,4.43
2023-01-13T10:50:04.379Z,4.72
2023-01-13T10:52:41.893Z,5.25
2023-01-13T10:55:37.926Z,5.03
2023-01-13T10:58:21.326Z,5.20
2023-01-13T11:00:58.990Z,4.93
2023-01-13T11:03:35.794Z,5.47
2023-01-13T11:06:05.638Z,5.32
2023-01-13T11:08:45.665Z,5.38
2023-01-13T11:11:45.103Z,5.32
2023-01-13T11:14:40.250Z,6.03
2023-01-13T11:17:23.889Z,5.45
2023-01-13T11:20:00.741Z,5.68
2023-01-13T11:22:36.293Z,5.53
2023-01-13T11:25:10.441Z,6.15
2023-01-13T11:27:56.705Z,5.87
2023-01-13T11:31:02.552Z,5.22
2023-01-13T11:34:00.528Z,6.95
2023-01-13T11:36:46.432Z,7.28
2023-01-13T11:39:55.984Z,7.90
2023-01-13T11:42:36.736Z,7.33
2023-01-13T11:45:13.832Z,6.68
2023-01-13T11:47:42.138Z,6.20
2023-01-13T11:50:23.849Z,5.13
2023-01-13T11:53:26.569Z,5.90
2023-01-13T11:56:28.296Z,5.80
2023-01-13T11:59:51.725Z,5.50
2023-01-13T12:02:59.011Z,5.07
2023-01-13T12:05:34.963Z,5.30
2023-01-13T12:08:28.390Z,5.80
2023-01-13T12:11:07.139Z,5.40
2023-01-13T12:14:12.631Z,4.93
2023-01-13T12:16:49.529Z,5.15
2023-01-13T12:19:29.969Z,5.18
2023-01-13T12:22:00.438Z,5.07
2023-01-13T12:24:58.599Z,4.87
2023-01-13T12:28:01.606Z,4.70
2023-01-13T12:30:39.941Z,4.20
2023-01-13T12:33:39.859Z,4.43
2023-01-13T12:37:02.243Z,4.70
2023-01-13T12:40:07.196Z,4.50
2023-01-13T12:43:05.513Z,4.00
2023-01-13T12:45:34.722Z,3.70
2023-01-13T12:48:02.750Z,4.00
2023-01-13T12:50:30.855Z,4.15
2023-01-13T12:53:01.706Z,4.50
2023-01-13T12:55:35.737Z,4.55
2023-01-13T12:58:06.653Z,5.00
2023-01-13T13:00:40.901Z,4.55
2023-01-13T13:03:12.617Z,3.88
2023-01-13T13:06:21.351Z,3.83
2023-01-13T13:09:03.629Z,3.92
2023-01-13T13:11:59.517Z,3.45
2023-01-13T13:14:43.107Z,3.65
2023-01-13T13:17:29.602Z,3.70
2023-01-13T13:19:59.442Z,3.63
2023-01-13T13:22:27.485Z,4.95
2023-01-13T13:24:55.714Z,3.70
2023-01-13T13:27:23.614Z,4.10
2023-01-13T13:30:10.329Z,3.42
2023-01-13T13:32:56.576Z,3.90
2023-01-13T13:35:53.252Z,3.97
2023-01-13T13:38:48.508Z,3.30
2023-01-13T13:41:41.019Z,2.70
2023-01-13T13:44:38.836Z,2.25
2023-01-13T13:47:08.108Z,2.33
2023-01-13T13:49:41.250Z,2.20
2023-01-13T13:52:35.869Z,1.90
2023-01-13T13:55:18.951Z,2.42
2023-01-13T13:57:52.672Z,2.03
2023-01-13T14:00:28.102Z,2.00
2023-01-13T14:03:03.237Z,2.13
2023-01-13T14:05:34.109Z,2.20
2023-01-13T14:08:16.507Z,2.20
2023-01-13T14:10:47.137Z,2.10
2023-01-13T14:13:16.668Z,2.00
2023-01-13T14:15:45.789Z,1.60
2023-01-13T14:18:20.134Z,1.98
2023-01-13T14:21:06.255Z,1.90
2023-01-13T14:23:34.938Z,1.90
2023-01-13T14:26:13.480Z,1.80
2023-01-13T14:28:43.162Z,1.63
2023-01-13T14:31:13.445Z,1.60
2023-01-13T14:33:56.104Z,1.80
2023-01-13T14:36:36.505Z,2.00
2023-01-13T14:39:04.935Z,1.97
2023-01-13T14:41:43.112Z,2.10
2023-01-13T14:44:14.097Z,1.77
2023-01-13T14:46:45.060Z,1.60
2023-01-13T14:49:38.824Z,1.58
2023-01-13T14:52:14.644Z,1.80
2023-01-13T14:54:42.969Z,1.80
2023-01-13T14:57:25.915Z,1.58
2023-01-13T15:00:06.812Z,1.60
2023-01-13T15:02:47.921Z,1.40
2023-01-13T15:05:24.746Z,1.70
2023-01-13T15:08:00.402Z,2.38
2023-01-13T15:10:55.351Z,2.70
2023-01-13T15:13:37.705Z,3.35
2023-01-13T15:16:13.807Z,3.42
2023-01-13T15:18:42.199Z,3.13
2023-01-13T15:21:10.453Z,4.00
2023-01-13T15:23:41.606Z,4.03
2023-01-13T15:26:21.358Z,3.60
2023-01-13T15:28:50.911Z,3.67
2023-01-13T15:31:18.838Z,3.43
2023-01-13T15:33:46.980Z,3.00
2023-01-13T15:36:34.932Z,2.88
2023-01-13T15:39:03.519Z,2.92
2023-01-13T15:41:49.792Z,3.15
2023-01-13T15:44:36.513Z,3.27
2023-01-13T15:47:08.994Z,2.92
2023-01-13T15:49:41.363Z,2.97
2023-01-13T15:52:22.278Z,2.80
2023-01-13T15:54:54.814Z,3.38
2023-01-13T15:57:29.100Z,3.17
2023-01-13T16:00:01.532Z,2.97
2023-01-13T16:02:35.020Z,3.15
2023-01-13T16:05:03.242Z,3.65
2023-01-13T16:07:31.171Z,4.50
2023-01-13T16:10:02.299Z,4.50
2023-01-13T16:12:30.534Z,4.57
2023-01-13T16:14:58.868Z,4.35
2023-01-13T16:17:30.785Z,5.10
2023-01-13T16:19:58.757Z,5.10
2023-01-13T16:22:26.734Z,5.40
2023-01-13T16:24:54.868Z,5.57
2023-01-13T16:27:24.799Z,6.40
2023-01-13T16:29:53.433Z,5.55
2023-01-13T16:32:21.441Z,5.30
2023-01-13T16:34:50.264Z,5.37
2023-01-13T16:37:27.303Z,5.80
2023-01-13T16:39:55.546Z,7.63
2023-01-13T16:42:23.582Z,8.95
2023-01-13T16:44:53.338Z,8.50
2023-01-13T16:47:23.264Z,7.73
2023-01-13T16:49:51.777Z,6.50
2023-01-13T16:52:19.884Z,6.65
2023-01-13T16:54:48.048Z,5.68
2023-01-13T16:57:16.256Z,5.68
2023-01-13T16:59:44.391Z,6.00
2023-01-13T17:02:15.122Z,5.43
2023-01-13T17:04:43.922Z,6.03
2023-01-13T17:07:16.181Z,6.30
2023-01-13T17:09:45.687Z,6.43
2023-01-13T17:12:13.830Z,6.23
2023-01-13T17:14:43.652Z,5.60
2023-01-13T17:17:23.479Z,6.60
2023-01-13T17:19:52.706Z,6.75
2023-01-13T17:22:21.499Z,8.18
2023-01-13T17:24:49.870Z,9.20
2023-01-13T17:27:19.130Z,8.95
2023-01-13T17:29:48.161Z,9.25
2023-01-13T17:32:21.302Z,9.30
2023-01-13T17:34:50.327Z,9.80
2023-01-13T17:37:18.461Z,9.20
2023-01-13T17:39:48.850Z,9.85
2023-01-13T17:42:17.439Z,9.88
2023-01-13T17:44:45.527Z,9.93
2023-01-13T17:47:14.417Z,11.13
2023-01-13T17:49:42.226Z,16.50
2023-01-13T17:52:10.314Z,20.48
2023-01-13T17:54:40.245Z,22.63
2023-01-13T17:57:08.740Z,23.58
2023-01-13T17:59:36.644Z,27.10
2023-01-13T18:02:05.367Z,26.20
2023-01-13T18:04:33.301Z,21.48
2023-01-13T18:07:01.515Z,21.00
2023-01-13T18:09:29.744Z,19.52
2023-01-13T18:11:59.407Z,19.55
2023-01-13T18:14:28.649Z,19.07
2023-01-13T18:16:56.498Z,16.92
2023-01-13T18:19:43.312Z,15.98
2023-01-13T18:22:32.751Z,14.68
2023-01-13T18:25:20.002Z,13.85
2023-01-13T18:27:49.407Z,12.00
2023-01-13T18:30:17.394Z,11.52
2023-01-13T18:32:45.412Z,11.93
2023-01-13T18:35:14.279Z,13.25
2023-01-13T18:37:42.549Z,13.50
2023-01-13T18:40:13.863Z,12.20
2023-01-13T18:42:59.378Z,12.75
2023-01-13T18:45:29.812Z,16.48
2023-01-13T18:48:00.505Z,16.67
2023-01-13T18:50:28.781Z,16.80
2023-01-13T18:52:57.469Z,16.57
2023-01-13T18:55:25.961Z,18.27
2023-01-13T18:57:54.281Z,19.55
2023-01-13T19:00:23.616Z,20.02
2023-01-13T19:05:36.029Z,20.93
2023-01-13T19:08:04.684Z,19.55
2023-01-13T19:10:34.314Z,19.17
2023-01-13T19:13:02.446Z,19.75
2023-01-13T19:15:31.468Z,19.33
2023-01-13T19:17:59.666Z,17.53
2023-01-13T19:20:27.766Z,17.10
2023-01-13T19:22:55.615Z,16.40
2023-01-13T19:25:23.895Z,17.67
2023-01-13T19:27:51.917Z,18.00
2023-01-13T19:30:20.001Z,17.83
2023-01-13T19:32:47.912Z,19.50
2023-01-13T19:35:18.399Z,19.77
2023-01-13T19:37:46.556Z,25.73
2023-01-13T19:40:15.234Z,29.80
2023-01-13T19:43:05.136Z,30.10
2023-01-13T19:45:39.363Z,25.48
2023-01-13T19:48:08.849Z,25.77
2023-01-13T19:50:39.279Z,23.60
2023-01-13T19:53:08.412Z,21.92
2023-01-13T19:55:36.275Z,20.60
2023-01-13T19:58:04.669Z,20.65
2023-01-13T20:00:32.969Z,18.42
2023-01-13T20:03:03.854Z,18.85
2023-01-13T20:05:32.214Z,15.55
2023-01-13T20:08:00.356Z,15.10
2023-01-13T20:10:30.990Z,14.55
2023-01-13T20:12:59.527Z,13.98
2023-01-13T20:15:27.348Z,14.93
2023-01-13T20:17:55.816Z,16.15
2023-01-13T20:20:24.075Z,15.60
2023-01-13T20:22:52.521Z,15.57
2023-01-13T20:25:21.020Z,14.48
2023-01-13T20:27:50.159Z,13.65
2023-01-13T20:30:18.167Z,11.48
2023-01-13T20:32:46.684Z,10.77
2023-01-13T20:35:14.590Z,10.80
2023-01-13T20:37:43.705Z,10.27
2023-01-13T20:40:15.684Z,10.13
2023-01-13T20:42:45.544Z,10.48
2023-01-13T20:45:18.666Z,9.90
2023-01-13T20:47:47.156Z,9.70
2023-01-13T20:50:15.666Z,10.32
2023-01-13T20:52:44.606Z,10.32
2023-01-13T20:55:13.639Z,9.68
2023-01-13T20:57:42.285Z,14.10
2023-01-13T21:00:11.379Z,15.85
2023-01-13T21:02:41.431Z,12.68
2023-01-13T21:05:10.636Z,14.68
2023-01-13T21:07:38.674Z,16.65
2023-01-13T21:10:07.011Z,16.47
2023-01-13T21:12:53.440Z,17.98
2023-01-13T21:15:23.233Z,15.60
2023-01-13T21:18:10.684Z,14.32
2023-01-13T21:20:39.874Z,13.68
2023-01-13T21:23:11.221Z,11.83
2023-01-13T21:25:40.671Z,10.80
2023-01-13T21:28:11.898Z,10.80
2023-01-13T21:30:40.262Z,10.45
2023-01-13T21:33:08.333Z,10.27
2023-01-13T21:35:39.232Z,10.53
2023-01-13T21:38:07.387Z,11.68
2023-01-13T21:40:35.119Z,12.32
2023-01-13T21:43:21.535Z,12.02
2023-01-13T21:46:08.237Z,12.40
2023-01-13T21:48:36.443Z,12.97
2023-01-13T21:51:04.224Z,13.48
2023-01-13T21:53:32.273Z,13.60
2023-01-13T21:56:00.121Z,12.82
2023-01-13T21:58:28.173Z,13.07
2023-01-13T22:00:56.458Z,12.50
2023-01-13T22:03:24.681Z,13.02
2023-01-13T22:05:56.481Z,11.70
2023-01-13T22:08:27.939Z,11.48
2023-01-13T22:10:58.772Z,12.02
2023-01-13T22:13:47.747Z,11.00
2023-01-13T22:16:16.262Z,11.80
2023-01-13T22:18:44.158Z,12.00
2023-01-13T22:21:12.324Z,11.18
2023-01-13T22:23:40.058Z,10.70
2023-01-13T22:26:09.217Z,10.37
2023-01-13T22:28:43.483Z,10.20
2023-01-13T22:31:16.478Z,10.93
2023-01-13T22:33:47.448Z,10.38
2023-01-13T22:36:16.545Z,10.63
2023-01-13T22:38:45.079Z,11.33
2023-01-13T22:41:13.390Z,10.45
2023-01-13T22:43:41.396Z,10.43
2023-01-13T22:46:12.519Z,9.73
2023-01-13T22:48:41.659Z,9.32
2023-01-13T22:51:12.689Z,8.50
2023-01-13T22:53:41.269Z,7.15
2023-01-13T22:56:16.317Z,6.57
2023-01-13T22:58:44.712Z,6.35
2023-01-13T23:01:17.819Z,6.05
2023-01-13T23:03:48.444Z,6.27
2023-01-13T23:06:18.811Z,5.43
2023-01-13T23:08:48.328Z,5.18
2023-01-13T23:11:18.656Z,5.00
2023-01-13T23:13:47.538Z,5.82
2023-01-13T23:16:24.025Z,4.70
2023-01-13T23:18:52.497Z,5.13
2023-01-13T23:21:24.186Z,4.65
2023-01-13T23:23:52.215Z,4.32
2023-01-13T23:26:21.075Z,4.25
2023-01-13T23:28:49.616Z,4.03
2023-01-13T23:31:22.921Z,4.20
2023-01-13T23:33:51.079Z,3.92
2023-01-13T23:36:22.428Z,3.85
2023-01-13T23:38:51.388Z,3.72
2023-01-13T23:41:21.431Z,3.90
2023-01-13T23:43:57.518Z,3.80
2023-01-13T23:46:26.392Z,4.10
2023-01-13T23:48:55.801Z,4.20
2023-01-13T23:51:23.864Z,3.80
2023-01-13T23:53:52.201Z,4.28
2023-01-13T23:56:23.088Z,4.07
2023-01-13T23:58:51.949Z,3.67
